Time;durP1;ratioP1;P1;durP2;ratioP2;P2;SDS_P1;SDS_P2;PMS_P1;PMS_P2;Temp;Humidity;BMP_temperature;BMP_pressure;BME280_temperature;BME280_humidity;BME280_pressure;Samples;Min_cycle;Max_cycle;Signal;HPM_P1;HPM_P2
2024/02/04 00:00:00;;;;;;;17.40;9.30;;;;;;;1.03;100.00;96379.69;4888160;29;20390;-69
2024/02/04 00:02:31;;;;;;;17.97;8.27;;;;;;;1.00;100.00;96370.41;4935770;29;20051;-69
2024/02/04 00:05:01;;;;;;;18.30;8.43;;;;;;;1.03;100.00;96362.19;4919921;29;20067;-68
2024/02/04 00:07:32;;;;;;;17.33;9.70;;;;;;;1.02;100.00;96354.53;5009690;28;20050;-68
2024/02/04 00:10:00;;;;;;;17.00;9.00;;;;;;;0.96;100.00;96353.47;5032400;28;20153;-68
2024/02/04 00:12:26;;;;;;;20.17;9.40;;;;;;;1.01;100.00;96339.88;5032508;28;20084;-69
2024/02/04 00:14:56;;;;;;;18.53;8.60;;;;;;;1.09;100.00;96334.56;5018844;28;20057;-69
2024/02/04 00:17:22;;;;;;;18.60;8.93;;;;;;;1.03;100.00;96332.69;5018869;28;20095;-69
2024/02/04 00:19:49;;;;;;;17.57;9.27;;;;;;;1.02;100.00;96321.41;5002906;28;20049;-68
2024/02/04 00:22:18;;;;;;;18.90;9.17;;;;;;;1.03;100.00;96322.22;5018849;28;20052;-69
2024/02/04 00:24:44;;;;;;;22.03;9.63;;;;;;;1.02;100.00;96320.59;5019229;28;20048;-69
2024/02/04 00:27:11;;;;;;;16.87;9.00;;;;;;;1.03;100.00;96314.38;5034708;28;20121;-69
2024/02/04 00:29:38;;;;;;;18.53;9.17;;;;;;;1.04;100.00;96314.22;5018393;28;20049;-70
2024/02/04 00:32:04;;;;;;;16.20;9.30;;;;;;;1.04;100.00;96302.94;5018419;28;20048;-73
2024/02/04 00:34:32;;;;;;;14.03;8.53;;;;;;;1.14;100.00;96309.50;5018883;28;20065;-69
2024/02/04 00:37:00;;;;;;;16.43;8.90;;;;;;;1.07;100.00;96295.56;5018484;28;20041;-69
2024/02/04 00:39:26;;;;;;;14.13;8.20;;;;;;;1.12;100.00;96289.78;5018647;28;20402;-69
2024/02/04 00:41:52;;;;;;;16.13;8.33;;;;;;;1.13;100.00;96280.94;5001890;28;20056;-69
2024/02/04 00:44:18;;;;;;;13.43;7.87;;;;;;;1.15;100.00;96285.00;4985753;28;20041;-70
2024/02/04 00:46:45;;;;;;;15.03;7.50;;;;;;;1.18;100.00;96276.00;4983291;28;20144;-69
2024/02/04 00:49:11;;;;;;;16.27;8.10;;;;;;;1.18;100.00;96278.63;4983653;28;20114;-69
2024/02/04 00:51:37;;;;;;;14.83;7.90;;;;;;;1.15;100.00;96276.38;4999055;28;20049;-69
2024/02/04 00:54:03;;;;;;;15.80;8.43;;;;;;;1.20;100.00;96272.19;4983998;28;20049;-69
2024/02/04 00:56:28;;;;;;;13.40;8.10;;;;;;;1.17;100.00;96280.41;5016576;28;20124;-69
2024/02/04 00:58:54;;;;;;;17.43;7.40;;;;;;;1.23;100.00;96269.22;5018638;28;20055;-70
2024/02/04 01:01:20;;;;;;;15.27;8.20;;;;;;;1.23;100.00;96266.59;5018989;28;20052;-69
2024/02/04 01:03:47;;;;;;;21.43;8.80;;;;;;;1.23;100.00;96250.94;5002909;28;20399;-69
2024/02/04 01:06:14;;;;;;;18.20;9.20;;;;;;;1.27;100.00;96254.81;5002135;28;20036;-70
2024/02/04 01:08:40;;;;;;;18.23;8.10;;;;;;;1.27;100.00;96246.16;5017883;28;20052;-70
2024/02/04 01:11:06;;;;;;;13.23;8.43;;;;;;;1.30;100.00;96251.84;5001316;28;20198;-70
2024/02/04 01:13:34;;;;;;;14.17;8.57;;;;;;;1.34;100.00;96244.41;5001371;28;20427;-69
2024/02/04 01:16:01;;;;;;;13.13;7.93;;;;;;;1.40;100.00;96238.44;5034535;28;20044;-69
2024/02/04 01:18:27;;;;;;;14.57;8.27;;;;;;;1.40;100.00;96230.63;5001430;28;20572;-69
2024/02/04 01:20:54;;;;;;;15.77;8.10;;;;;;;1.44;100.00;96240.53;5033755;28;20072;-69
2024/02/04 01:23:20;;;;;;;14.67;8.20;;;;;;;1.45;100.00;96231.69;5017067;28;20446;-69
2024/02/04 01:25:46;;;;;;;14.93;8.73;;;;;;;1.49;100.00;96224.31;4962056;28;20061;-69
2024/02/04 01:28:13;;;;;;;12.90;7.80;;;;;;;1.56;100.00;96215.53;4962043;28;20507;-69
2024/02/04 01:30:39;;;;;;;17.40;9.27;;;;;;;1.46;100.00;96216.84;4946080;28;20080;-68
2024/02/04 01:33:05;;;;;;;13.63;7.97;;;;;;;1.44;100.00;96198.72;4991707;28;20493;-69
2024/02/04 01:35:32;;;;;;;14.87;8.07;;;;;;;1.54;100.00;96201.81;4955544;28;20141;-69
2024/02/04 01:37:58;;;;;;;13.90;8.33;;;;;;;1.52;100.00;96214.25;4939745;28;20118;-69
2024/02/04 01:40:26;;;;;;;14.73;8.50;;;;;;;1.54;100.00;96195.78;4955489;28;20053;-68
2024/02/04 01:42:51;;;;;;;11.77;7.97;;;;;;;1.64;100.00;96191.06;4939881;28;20035;-69
2024/02/04 01:45:17;;;;;;;10.67;6.90;;;;;;;1.66;100.00;96189.09;4955603;28;20114;-69
2024/02/04 01:47:43;;;;;;;13.40;7.60;;;;;;;1.65;100.00;96176.97;4923935;28;20062;-71
2024/02/04 01:50:10;;;;;;;12.70;6.70;;;;;;;1.72;100.00;96177.88;4955613;28;20101;-69
2024/02/04 01:52:39;;;;;;;11.13;7.33;;;;;;;1.90;100.00;96175.63;4923891;28;20541;-69
2024/02/04 01:55:07;;;;;;;11.63;6.93;;;;;;;1.81;100.00;96168.06;4923658;28;20445;-69
2024/02/04 01:57:37;;;;;;;8.73;6.17;;;;;;;1.92;100.00;96159.72;4988360;28;20180;-69
2024/02/04 02:00:04;;;;;;;10.53;6.13;;;;;;;1.95;100.00;96159.34;4959515;28;20054;-69
2024/02/04 02:02:34;;;;;;;10.67;6.53;;;;;;;2.07;100.00;96161.25;4974328;28;20050;-69
2024/02/04 02:05:01;;;;;;;9.23;5.70;;;;;;;2.02;100.00;96157.59;4936208;29;20517;-69
2024/02/04 02:07:27;;;;;;;8.93;5.40;;;;;;;2.03;100.00;96144.31;4928514;29;20051;-69
2024/02/04 02:09:53;;;;;;;7.53;5.20;;;;;;;2.12;100.00;96152.84;4904429;29;20418;-69
2024/02/04 02:12:44;;;;;;;8.83;5.07;;;;;;;2.37;100.00;96141.72;4924691;28;20070;-69
2024/02/04 02:15:16;;;;;;;8.10;4.60;;;;;;;2.40;100.00;96153.66;4923446;28;20929;-69
2024/02/04 02:17:51;;;;;;;5.60;3.90;;;;;;;2.41;100.00;96135.13;4939043;28;20433;-69
2024/02/04 02:20:55;;;;;;;5.20;3.70;;;;;;;2.36;100.00;96134.88;4944286;28;20081;-69
2024/02/04 02:23:30;;;;;;;5.17;4.17;;;;;;;2.52;100.00;96134.56;4938900;28;20096;-69
2024/02/04 02:25:58;;;;;;;5.23;3.57;;;;;;;2.52;100.00;96131.94;4954939;28;20062;-68
2024/02/04 02:28:24;;;;;;;6.37;3.90;;;;;;;2.49;100.00;96121.84;4954844;28;20108;-69
2024/02/04 02:30:50;;;;;;;3.43;2.97;;;;;;;2.52;100.00;96124.09;4931180;28;20055;-69
2024/02/04 02:33:15;;;;;;;5.47;3.50;;;;;;;2.56;100.00;96120.09;4972434;28;20055;-69
2024/02/04 02:35:44;;;;;;;5.30;3.50;;;;;;;2.63;100.00;96117.50;4941448;28;20049;-70
2024/02/04 02:38:23;;;;;;;4.53;3.20;;;;;;;2.73;100.00;96103.06;4965588;28;20077;-71
2024/02/04 02:40:57;;;;;;;7.00;3.50;;;;;;;2.65;100.00;96118.94;5029722;28;20084;-69
2024/02/04 02:43:24;;;;;;;6.33;3.40;;;;;;;2.56;100.00;96114.84;5018160;28;20041;-69
2024/02/04 02:45:50;;;;;;;4.40;3.20;;;;;;;2.55;100.00;96097.50;4985346;28;20391;-69
2024/02/04 02:48:16;;;;;;;4.37;3.30;;;;;;;2.62;100.00;96100.16;5001484;28;20045;-70
2024/02/04 02:50:44;;;;;;;5.47;3.03;;;;;;;2.64;100.00;96093.75;5001875;28;20045;-71
2024/02/04 02:53:10;;;;;;;4.00;2.77;;;;;;;2.74;100.00;96086.31;4985429;28;20341;-71
2024/02/04 02:55:37;;;;;;;5.10;3.57;;;;;;;2.68;100.00;96083.66;4985187;28;20061;-71
2024/02/04 02:58:03;;;;;;;4.67;3.23;;;;;;;2.60;100.00;96089.88;4985194;28;20045;-70
2024/02/04 03:00:29;;;;;;;3.73;2.80;;;;;;;2.67;100.00;96088.13;4985417;28;20052;-70
2024/02/04 03:02:55;;;;;;;4.27;2.93;;;;;;;2.69;100.00;96086.09;5001402;28;20052;-70
2024/02/04 03:05:22;;;;;;;4.70;3.33;;;;;;;2.67;100.00;96093.34;5001763;28;20143;-71
2024/02/04 03:07:48;;;;;;;4.13;3.00;;;;;;;2.69;100.00;96085.31;4985630;28;20200;-71
2024/02/04 03:10:14;;;;;;;2.73;2.43;;;;;;;2.73;100.00;96079.47;5033913;28;20468;-71
2024/02/04 03:12:41;;;;;;;4.10;2.70;;;;;;;2.70;100.00;96087.72;5035356;28;20045;-70
2024/02/04 03:15:07;;;;;;;3.50;2.80;;;;;;;2.66;100.00;96086.47;5017062;28;20072;-69
2024/02/04 03:17:33;;;;;;;3.90;2.90;;;;;;;2.69;100.00;96078.22;5019580;28;20451;-69
2024/02/04 03:20:00;;;;;;;3.20;2.57;;;;;;;2.75;100.00;96074.81;5003528;28;20049;-69
2024/02/04 03:22:29;;;;;;;3.20;2.40;;;;;;;2.78;100.00;96071.03;5003922;28;20090;-69
2024/02/04 03:24:55;;;;;;;3.63;2.80;;;;;;;2.84;100.00;96070.25;5003350;28;20041;-70
2024/02/04 03:27:22;;;;;;;4.37;2.50;;;;;;;2.83;100.00;96076.50;4987343;28;20487;-70
2024/02/04 03:29:49;;;;;;;4.23;2.43;;;;;;;2.83;100.00;96063.41;5036237;28;20060;-70
2024/02/04 03:32:14;;;;;;;4.60;2.70;;;;;;;2.77;100.00;96064.16;5019534;28;20048;-70
2024/02/04 03:34:43;;;;;;;3.40;2.77;;;;;;;2.92;100.00;96055.13;5003661;28;20063;-70
2024/02/04 03:37:10;;;;;;;5.80;3.20;;;;;;;2.78;100.00;96050.84;5003604;28;20106;-70
2024/02/04 03:39:37;;;;;;;4.30;2.80;;;;;;;2.74;100.00;96059.31;4986755;28;20075;-70
2024/02/04 03:42:04;;;;;;;3.07;2.40;;;;;;;2.83;100.00;96058.16;5019667;28;20060;-70
2024/02/04 03:44:30;;;;;;;3.47;2.50;;;;;;;2.84;100.00;96057.97;5032231;28;20084;-71
2024/02/04 03:46:56;;;;;;;5.07;2.57;;;;;;;2.83;100.00;96058.16;4999944;28;20095;-72
2024/02/04 03:49:21;;;;;;;5.00;2.33;;;;;;;2.79;100.00;96046.44;5003066;28;20088;-72
2024/02/04 03:51:49;;;;;;;3.47;2.60;;;;;;;2.85;100.00;96048.25;4968661;28;20053;-72
2024/02/04 03:54:19;;;;;;;4.80;2.60;;;;;;;2.85;100.00;96051.69;4969250;28;20053;-73
2024/02/04 03:56:46;;;;;;;3.07;2.27;;;;;;;2.89;100.00;96049.50;4967135;28;20048;-73
2024/02/04 03:59:13;;;;;;;4.53;2.30;;;;;;;2.98;100.00;96053.56;4967354;28;20081;-72
2024/02/04 04:01:39;;;;;;;3.87;2.10;;;;;;;2.89;100.00;96042.44;4967260;28;20468;-72
2024/02/04 04:04:05;;;;;;;2.93;1.80;;;;;;;2.95;100.00;96046.88;4983355;28;20081;-72
2024/02/04 04:06:31;;;;;;;2.07;1.83;;;;;;;2.91;100.00;96045.66;4967856;28;20047;-72
2024/02/04 04:08:58;;;;;;;2.47;1.83;;;;;;;2.93;100.00;96042.84;4999030;28;20385;-72
2024/02/04 04:11:24;;;;;;;2.47;1.97;;;;;;;2.96;100.00;96038.03;5015554;28;20060;-72
2024/02/04 04:13:50;;;;;;;5.60;1.77;;;;;;;2.99;100.00;96040.25;5015587;28;20053;-73
2024/02/04 04:16:20;;;;;;;2.43;1.60;;;;;;;3.13;100.00;96038.47;5002469;28;20442;-73
2024/02/04 04:18:48;;;;;;;1.67;1.30;;;;;;;3.03;100.00;96041.47;5002362;28;20139;-73
2024/02/04 04:21:14;;;;;;;4.30;1.50;;;;;;;3.02;100.00;96031.19;5002412;28;20434;-72
2024/02/04 04:23:40;;;;;;;1.70;1.60;;;;;;;2.88;100.00;96035.59;5002210;28;20049;-72
2024/02/04 04:26:07;;;;;;;2.13;1.40;;;;;;;2.91;100.00;96032.56;4985878;28;20048;-73
2024/02/04 04:28:36;;;;;;;1.43;1.30;;;;;;;2.93;100.00;96025.31;5002660;28;20630;-72
2024/02/04 04:31:03;;;;;;;1.27;1.13;;;;;;;2.91;100.00;96018.66;5002520;28;20047;-72
2024/02/04 04:33:30;;;;;;;1.37;1.27;;;;;;;2.92;100.00;96015.81;5018941;28;20531;-73
2024/02/04 04:35:57;;;;;;;2.03;1.60;;;;;;;2.90;100.00;96022.28;5003448;28;20076;-73
2024/02/04 04:38:23;;;;;;;2.20;1.20;;;;;;;2.94;100.00;96013.81;4989110;28;20051;-73
2024/02/04 04:40:49;;;;;;;1.00;1.00;;;;;;;2.95;100.00;96012.03;4986246;28;20084;-74
2024/02/04 04:43:17;;;;;;;2.13;1.27;;;;;;;2.94;100.00;96016.44;4968714;28;20046;-72
2024/02/04 04:45:44;;;;;;;1.40;1.27;;;;;;;2.99;100.00;96021.09;5012223;28;20048;-74
2024/02/04 04:48:11;;;;;;;3.00;1.30;;;;;;;3.03;100.00;96011.81;5018464;28;20049;-73
2024/02/04 04:50:37;;;;;;;1.40;1.30;;;;;;;3.01;100.00;96013.84;4998822;28;20057;-73
2024/02/04 04:53:03;;;;;;;1.70;1.60;;;;;;;3.06;100.00;96000.97;5014838;28;20135;-73
2024/02/04 04:55:29;;;;;;;2.07;1.27;;;;;;;2.91;100.00;96008.16;4981656;28;20152;-73
2024/02/04 04:57:56;;;;;;;3.57;1.60;;;;;;;2.84;100.00;96002.94;4998442;28;20057;-73
2024/02/04 05:00:22;;;;;;;3.77;1.47;;;;;;;2.84;100.00;95999.50;4981519;28;20056;-73
2024/02/04 05:02:48;;;;;;;1.43;1.37;;;;;;;2.77;100.00;96006.53;4920607;28;20486;-74
2024/02/04 05:05:14;;;;;;;1.40;1.30;;;;;;;2.98;100.00;95988.81;4905697;29;20062;-72
2024/02/04 05:07:42;;;;;;;1.93;1.20;;;;;;;3.03;100.00;95989.03;4905456;29;20148;-71
2024/02/04 05:10:08;;;;;;;2.50;1.50;;;;;;;2.89;100.00;95995.28;4906120;28;20051;-71
2024/02/04 05:12:35;;;;;;;3.53;1.30;;;;;;;3.02;100.00;95990.06;4906287;29;20055;-71
2024/02/04 05:15:02;;;;;;;1.40;1.30;;;;;;;2.98;100.00;95990.66;4905228;29;20051;-72
2024/02/04 05:17:31;;;;;;;1.53;1.43;;;;;;;3.09;100.00;95992.69;4890837;29;20091;-72
2024/02/04 05:19:57;;;;;;;1.43;1.33;;;;;;;3.00;100.00;95970.28;4904998;28;20150;-70
2024/02/04 05:22:23;;;;;;;1.43;1.30;;;;;;;3.12;100.00;95985.22;4920726;28;20209;-72
2024/02/04 05:24:51;;;;;;;1.40;1.30;;;;;;;3.19;100.00;95977.38;4924242;28;20568;-71
2024/02/04 05:27:17;;;;;;;2.00;1.50;;;;;;;3.14;100.00;95980.59;4955886;28;20070;-71
2024/02/04 05:29:43;;;;;;;1.60;1.40;;;;;;;3.12;100.00;95974.72;4932188;29;20048;-68
2024/02/04 05:32:09;;;;;;;1.60;1.50;;;;;;;3.20;100.00;95989.44;4917656;29;20047;-73
2024/02/04 05:34:37;;;;;;;1.20;1.10;;;;;;;3.32;100.00;95974.75;4952305;28;20061;-70
2024/02/04 05:37:03;;;;;;;1.67;1.57;;;;;;;3.25;100.00;95976.56;4976304;28;20054;-70
2024/02/04 05:39:29;;;;;;;1.30;1.20;;;;;;;3.29;100.00;95970.72;4986690;28;20076;-70
2024/02/04 05:41:54;;;;;;;1.30;1.20;;;;;;;3.27;100.00;95983.22;5052204;28;20344;-71
2024/02/04 05:44:20;;;;;;;3.00;1.67;;;;;;;3.27;100.00;95964.88;5051649;28;20128;-70
2024/02/04 05:46:46;;;;;;;1.77;1.20;;;;;;;3.24;100.00;95962.63;5034769;28;20055;-71
2024/02/04 05:49:12;;;;;;;1.83;1.20;;;;;;;3.25;100.00;95977.38;5034464;28;20419;-70
2024/02/04 05:51:41;;;;;;;1.20;1.10;;;;;;;3.47;100.00;95978.75;5034476;28;20045;-76
2024/02/04 05:54:09;;;;;;;1.77;1.48;;;;;;;3.38;100.00;95966.88;5045245;28;20087;-75
2024/02/04 05:56:35;;;;;;;0.97;0.97;;;;;;;3.41;100.00;95974.34;5041486;28;20144;-75
2024/02/04 05:59:00;;;;;;;2.00;1.10;;;;;;;3.34;100.00;95967.47;5042373;28;20499;-76
2024/02/04 06:01:26;;;;;;;1.93;1.00;;;;;;;3.45;100.00;95970.31;5021137;28;20132;-76
2024/02/04 06:03:52;;;;;;;1.40;1.10;;;;;;;3.49;100.00;95979.38;5041284;28;20049;-73
2024/02/04 06:06:21;;;;;;;1.30;1.20;;;;;;;3.55;100.00;95974.34;5042747;28;20051;-75
2024/02/04 06:08:47;;;;;;;1.30;1.20;;;;;;;3.56;100.00;95981.19;5025591;28;20037;-75
2024/02/04 06:11:13;;;;;;;1.63;1.13;;;;;;;3.59;100.00;95996.50;5043585;28;20055;-77
2024/02/04 06:13:45;;;;;;;1.10;1.00;;;;;;;3.79;100.00;95992.88;5051131;28;20056;-74
2024/02/04 06:16:16;;;;;;;1.30;0.90;;;;;;;3.82;100.00;95991.66;5035046;28;20123;-72
2024/02/04 06:18:42;;;;;;;2.73;1.00;;;;;;;3.75;100.00;95999.53;5024055;28;20049;-73
2024/02/04 06:21:08;;;;;;;1.10;1.00;;;;;;;3.65;100.00;95996.53;5040564;28;20040;-72
2024/02/04 06:23:38;;;;;;;1.40;1.17;;;;;;;3.59;100.00;95999.94;5025737;28;20059;-72
2024/02/04 06:26:05;;;;;;;1.50;1.10;;;;;;;3.64;100.00;95994.91;5042302;28;20056;-71
2024/02/04 06:28:31;;;;;;;0.93;0.93;;;;;;;3.65;100.00;96000.94;5025375;28;20048;-74
2024/02/04 06:30:58;;;;;;;2.53;1.43;;;;;;;3.67;100.00;95998.94;5040413;28;20071;-73
2024/02/04 06:33:24;;;;;;;1.10;1.00;;;;;;;3.74;100.00;96005.78;5041336;28;20076;-74
2024/02/04 06:35:50;;;;;;;1.30;1.20;;;;;;;3.69;100.00;96016.06;5014207;28;20115;-74
2024/02/04 06:38:16;;;;;;;2.77;1.20;;;;;;;3.64;100.00;96015.91;5046362;28;20049;-72
2024/02/04 06:40:42;;;;;;;1.90;1.10;;;;;;;3.66;100.00;96029.59;5049914;28;20916;-72
2024/02/04 06:43:08;;;;;;;1.73;1.00;;;;;;;3.74;100.00;96028.63;5049034;28;20366;-73
2024/02/04 06:45:35;;;;;;;1.20;1.10;;;;;;;3.75;100.00;96030.22;5031674;28;20041;-73
2024/02/04 06:48:02;;;;;;;0.97;0.80;;;;;;;3.78;100.00;96029.81;5047108;28;20138;-72
2024/02/04 06:50:28;;;;;;;0.80;0.80;;;;;;;3.69;100.00;96034.44;5031659;28;20076;-74
2024/02/04 06:52:54;;;;;;;1.30;1.20;;;;;;;3.67;100.00;96017.31;5049138;28;20129;-73
2024/02/04 06:55:20;;;;;;;1.13;0.90;;;;;;;3.88;100.00;96043.31;5032089;28;20503;-74
2024/02/04 06:57:45;;;;;;;1.57;1.00;;;;;;;3.92;100.00;96039.28;5050302;28;20049;-74
2024/02/04 07:00:12;;;;;;;1.80;1.10;;;;;;;3.95;100.00;96052.00;5050423;28;20433;-74
2024/02/04 07:02:38;;;;;;;0.80;0.80;;;;;;;4.01;100.00;96054.63;5050574;28;20052;-73
2024/02/04 07:05:05;;;;;;;2.87;0.83;;;;;;;3.90;100.00;96052.59;5050295;28;20357;-74
2024/02/04 07:07:31;;;;;;;1.40;0.90;;;;;;;3.81;100.00;96063.50;5050270;28;20072;-73
2024/02/04 07:09:58;;;;;;;0.87;0.80;;;;;;;3.96;100.00;96056.22;5050467;28;20087;-74
2024/02/04 07:12:23;;;;;;;1.80;0.90;;;;;;;3.94;100.00;96066.13;5034221;28;20041;-74
2024/02/04 07:14:49;;;;;;;1.40;1.10;;;;;;;3.94;100.00;96071.34;5034076;28;20064;-73
2024/02/04 07:17:15;;;;;;;0.80;0.80;;;;;;;3.94;100.00;96084.47;5017762;28;20064;-73
2024/02/04 07:19:41;;;;;;;0.90;0.80;;;;;;;3.93;100.00;96065.31;5018295;28;20364;-74
2024/02/04 07:22:07;;;;;;;0.70;0.70;;;;;;;4.03;100.00;96078.81;5037796;28;20041;-74
2024/02/04 07:24:33;;;;;;;1.90;1.03;;;;;;;4.08;100.00;96086.09;5055145;28;20123;-74
2024/02/04 07:26:59;;;;;;;1.57;0.97;;;;;;;4.11;100.00;96081.25;5054167;28;20044;-74
2024/02/04 07:29:24;;;;;;;0.80;0.80;;;;;;;4.14;100.00;96086.09;5037961;28;20044;-74
2024/02/04 07:31:50;;;;;;;1.23;0.83;;;;;;;4.18;100.00;96089.91;5037698;28;20067;-71
2024/02/04 07:34:16;;;;;;;0.80;0.80;;;;;;;4.18;100.00;96092.53;5004779;28;20059;-74
2024/02/04 07:36:43;;;;;;;1.20;1.10;;;;;;;4.21;100.00;96097.41;5054300;28;20343;-72
2024/02/04 07:39:09;;;;;;;3.23;1.10;;;;;;;4.23;100.00;96100.59;5053921;28;20418;-74
2024/02/04 07:41:35;;;;;;;3.03;1.00;;;;;;;4.30;100.00;96116.38;5020745;28;20090;-77
2024/02/04 07:44:00;;;;;;;1.30;1.20;;;;;;;4.33;100.00;96108.06;5054294;28;20083;-76
2024/02/04 07:46:26;;;;;;;2.20;1.33;;;;;;;4.34;100.00;96117.56;5054070;28;20052;-73
2024/02/04 07:48:53;;;;;;;0.83;0.83;;;;;;;4.32;100.00;96124.84;5037541;28;20044;-77
2024/02/04 07:51:20;;;;;;;0.97;0.87;;;;;;;4.37;100.00;96127.66;5004261;28;20044;-77
2024/02/04 07:53:46;;;;;;;0.87;0.80;;;;;;;4.35;100.00;96122.59;5037298;28;20052;-73
2024/02/04 07:56:11;;;;;;;2.47;1.10;;;;;;;4.30;100.00;96132.94;5053645;28;20045;-74
2024/02/04 07:58:37;;;;;;;1.00;1.00;;;;;;;4.43;100.00;96140.78;5037143;28;20048;-74
2024/02/04 08:01:03;;;;;;;1.47;1.20;;;;;;;4.49;100.00;96147.06;5053765;28;20368;-73
2024/02/04 08:03:32;;;;;;;1.20;1.10;;;;;;;4.59;100.00;96142.16;5036108;28;20045;-69
2024/02/04 08:05:58;;;;;;;1.23;1.10;;;;;;;4.56;100.00;96159.16;5004592;28;20045;-73
2024/02/04 08:08:24;;;;;;;1.80;1.23;;;;;;;4.49;100.00;96153.09;5016378;28;20539;-72
2024/02/04 08:10:50;;;;;;;1.43;1.10;;;;;;;4.44;100.00;96162.63;4968676;28;20049;-72
2024/02/04 08:13:15;;;;;;;1.13;1.03;;;;;;;4.36;100.00;96178.56;4999941;28;20056;-74
2024/02/04 08:15:41;;;;;;;1.20;1.10;;;;;;;4.40;100.00;96174.53;4999933;28;20049;-74
2024/02/04 08:18:07;;;;;;;1.83;1.10;;;;;;;4.34;100.00;96189.28;4999867;28;20451;-74
2024/02/04 08:20:33;;;;;;;1.13;1.03;;;;;;;4.27;100.00;96193.75;4999754;28;20549;-73
2024/02/04 08:23:00;;;;;;;2.77;1.30;;;;;;;4.29;100.00;96198.81;5032300;28;20057;-72
2024/02/04 08:25:26;;;;;;;1.07;0.97;;;;;;;4.31;100.00;96196.75;4999556;28;20057;-74
2024/02/04 08:27:52;;;;;;;2.53;1.20;;;;;;;4.30;100.00;96216.16;4983153;28;20049;-73
2024/02/04 08:30:18;;;;;;;2.33;1.30;;;;;;;4.25;100.00;96197.56;4999219;28;20049;-76
2024/02/04 08:32:46;;;;;;;1.10;1.00;;;;;;;4.28;100.00;96205.03;5015683;28;20095;-72
2024/02/04 08:35:12;;;;;;;1.80;1.00;;;;;;;4.24;100.00;96214.34;5031001;28;20063;-73
2024/02/04 08:37:47;;;;;;;2.70;1.10;;;;;;;4.27;100.00;96217.38;4997983;28;20046;-74
2024/02/04 08:40:20;;;;;;;0.85;0.80;;;;;;;4.35;100.00;96221.63;5009766;28;20057;-74
2024/02/04 08:42:47;;;;;;;3.23;1.40;;;;;;;4.13;100.00;96230.69;4963592;28;20049;-73
2024/02/04 08:45:13;;;;;;;2.40;1.20;;;;;;;4.13;100.00;96222.81;4995240;28;20060;-73
2024/02/04 08:47:39;;;;;;;2.47;1.30;;;;;;;4.15;100.00;96228.69;4995023;28;20046;-72
2024/02/04 08:50:06;;;;;;;2.67;1.40;;;;;;;4.22;100.00;96242.63;4995412;28;20046;-73
2024/02/04 08:52:32;;;;;;;2.40;1.73;;;;;;;4.22;100.00;96242.63;4995502;28;20067;-74
2024/02/04 08:54:59;;;;;;;3.70;1.60;;;;;;;4.20;100.00;96257.75;4979396;28;20072;-75
2024/02/04 08:57:25;;;;;;;2.13;1.53;;;;;;;4.23;100.00;96241.63;4979526;28;20156;-76
2024/02/04 08:59:52;;;;;;;3.67;1.33;;;;;;;4.42;100.00;96253.94;5007850;28;20472;-75
2024/02/04 09:02:19;;;;;;;3.97;1.47;;;;;;;4.56;100.00;96252.94;4993305;28;20108;-74
2024/02/04 09:04:45;;;;;;;3.97;1.30;;;;;;;4.62;100.00;96262.63;5017038;28;20054;-73
2024/02/04 09:07:11;;;;;;;2.23;1.33;;;;;;;4.66;100.00;96267.28;4990825;28;20395;-73
2024/02/04 09:09:37;;;;;;;6.00;1.47;;;;;;;4.63;100.00;96275.56;5001860;28;20059;-73
2024/02/04 09:12:03;;;;;;;5.73;1.70;;;;;;;4.63;100.00;96267.69;5027271;28;20691;-74
2024/02/04 09:14:29;;;;;;;3.07;1.47;;;;;;;4.55;100.00;96274.97;5012523;28;20144;-74
2024/02/04 09:16:54;;;;;;;2.97;1.70;;;;;;;4.51;100.00;96276.38;5045154;28;20110;-73
2024/02/04 09:19:20;;;;;;;6.37;1.50;;;;;;;4.58;100.00;96267.47;5028477;28;20065;-73
2024/02/04 09:21:46;;;;;;;4.37;1.80;;;;;;;4.68;100.00;96281.03;5047797;28;20061;-73
2024/02/04 09:24:12;;;;;;;4.23;1.60;;;;;;;4.58;100.00;96274.56;5031325;28;20652;-74
2024/02/04 09:26:37;;;;;;;3.20;1.65;;;;;;;4.59;100.00;96290.13;5014760;28;20147;-73
2024/02/04 09:29:05;;;;;;;4.47;1.70;;;;;;;4.74;100.00;96279.41;5047956;28;20045;-74
2024/02/04 09:31:31;;;;;;;4.27;1.60;;;;;;;4.75;100.00;96286.28;5031488;28;20071;-73
2024/02/04 09:33:58;;;;;;;3.13;1.50;;;;;;;4.93;100.00;96289.91;5015158;28;20052;-76
2024/02/04 09:36:26;;;;;;;3.70;1.53;;;;;;;5.11;100.00;96287.44;5049508;28;20056;-73
2024/02/04 09:38:55;;;;;;;4.37;1.70;;;;;;;5.31;100.00;96291.84;4999394;28;20052;-75
2024/02/04 09:41:26;;;;;;;3.92;1.73;;;;;;;5.41;100.00;96290.41;5029178;28;20474;-74
2024/02/04 09:43:52;;;;;;;4.95;1.90;;;;;;;5.46;100.00;96301.09;5000772;28;20044;-74
2024/02/04 09:46:18;;;;;;;9.50;2.05;;;;;;;5.57;100.00;96302.28;5016769;28;20044;-74
2024/02/04 09:48:46;;;;;;;4.47;1.73;;;;;;;5.59;100.00;96308.16;5032662;28;20110;-74
2024/02/04 09:51:14;;;;;;;6.30;1.58;;;;;;;5.62;100.00;96313.81;5015913;28;20136;-75
2024/02/04 09:53:43;;;;;;;4.18;1.83;;;;;;;5.61;100.00;96322.75;5033896;28;20532;-75
2024/02/04 09:56:11;;;;;;;5.82;1.60;;;;;;;5.50;100.00;96306.78;5017448;28;20121;-74
2024/02/04 09:58:40;;;;;;;4.50;1.70;;;;;;;5.67;100.00;96307.94;5067340;28;20140;-73
2024/02/04 10:01:08;;;;;;;6.68;2.05;;;;;;;6.07;100.00;96302.31;5050678;28;20052;-74
2024/02/04 10:03:34;;;;;;;5.72;1.95;;;;;;;6.17;100.00;96321.09;5034245;28;20487;-74
2024/02/04 10:06:00;;;;;;;4.50;1.70;;;;;;;6.29;100.00;96315.94;5034989;28;20032;-74
2024/02/04 10:08:28;;;;;;;5.72;1.95;;;;;;;6.09;100.00;96320.56;5050695;28;20060;-74
2024/02/04 10:10:54;;;;;;;5.10;1.60;;;;;;;5.92;100.00;96320.19;5032392;28;20201;-77
2024/02/04 10:13:21;;;;;;;3.75;1.60;;;;;;;5.89;100.00;96325.88;5033877;28;20044;-74
2024/02/04 10:15:48;;;;;;;5.30;1.80;;;;;;;5.94;100.00;96336.59;5050813;28;20145;-74
2024/02/04 10:18:14;;;;;;;4.28;1.80;;;;;;;5.67;100.00;96324.53;5050592;28;20127;-74
2024/02/04 10:20:42;;;;;;;6.28;1.90;;;;;;;5.58;100.00;96336.28;5034782;28;20044;-73
2024/02/04 10:23:10;;;;;;;8.18;2.00;;;;;;;5.42;100.00;96330.66;5018301;28;20044;-74
2024/02/04 10:25:35;;;;;;;5.55;1.90;;;;;;;5.37;100.00;96335.75;5052283;28;20086;-72
2024/02/04 10:28:02;;;;;;;4.22;1.67;;;;;;;5.27;100.00;96343.25;5032377;28;20474;-74
2024/02/04 10:30:29;;;;;;;5.85;1.88;;;;;;;5.26;100.00;96346.91;5049086;28;20060;-74
2024/02/04 10:32:55;;;;;;;4.78;1.70;;;;;;;5.15;100.00;96341.25;5015530;28;20049;-74
2024/02/04 10:35:22;;;;;;;4.07;1.75;;;;;;;5.34;100.00;96349.31;5048235;28;20037;-73
2024/02/04 10:37:50;;;;;;;5.13;1.88;;;;;;;5.53;100.00;96349.28;5048715;28;20079;-73
2024/02/04 10:40:16;;;;;;;7.88;2.28;;;;;;;5.60;100.00;96342.16;5031752;28;20483;-73
2024/02/04 10:42:43;;;;;;;8.23;2.20;;;;;;;5.57;100.00;96358.38;5031921;28;20094;-72
2024/02/04 10:45:11;;;;;;;6.53;1.77;;;;;;;5.62;100.00;96355.94;5015773;28;20048;-73
2024/02/04 10:47:39;;;;;;;7.60;2.58;;;;;;;5.54;100.00;96336.91;5015024;28;20045;-73
2024/02/04 10:50:08;;;;;;;4.40;1.77;;;;;;;5.56;100.00;96335.72;5048158;28;20032;-71
2024/02/04 10:52:38;;;;;;;5.85;1.45;;;;;;;5.76;100.00;96336.44;5015884;28;20052;-72
2024/02/04 10:55:09;;;;;;;5.45;1.92;;;;;;;5.91;100.00;96338.84;5018438;28;20040;-74
2024/02/04 10:57:35;;;;;;;6.70;2.50;;;;;;;5.92;100.00;96338.63;5036012;28;20053;-74
2024/02/04 11:00:08;;;;;;;4.03;1.85;;;;;;;6.13;100.00;96351.53;5035446;28;20041;-73
2024/02/04 11:02:35;;;;;;;4.43;1.90;;;;;;;6.06;100.00;96353.38;5035877;28;20072;-74
2024/02/04 11:05:03;;;;;;;3.47;1.83;;;;;;;6.22;100.00;96352.91;5018942;28;20502;-73
2024/02/04 11:07:32;;;;;;;7.50;2.55;;;;;;;6.07;100.00;96348.91;5035693;28;20114;-73
2024/02/04 11:09:58;;;;;;;8.50;2.13;;;;;;;6.08;100.00;96351.34;5051927;28;20048;-74
2024/02/04 11:12:25;;;;;;;6.43;1.63;;;;;;;6.31;100.00;96350.81;5001595;28;20036;-73
2024/02/04 11:14:54;;;;;;;2.83;1.60;;;;;;;6.66;100.00;96354.63;5035582;28;20053;-73
2024/02/04 11:17:41;;;;;;;2.67;1.40;;;;;;;7.03;100.00;96363.53;5019698;28;20071;-77
2024/02/04 11:20:22;;;;;;;4.38;1.48;;;;;;;7.20;100.00;96351.38;5052847;28;20037;-74
2024/02/04 11:23:21;;;;;;;2.45;1.50;;;;;;;7.39;100.00;96350.41;5034892;28;20139;-75
2024/02/04 11:25:56;;;;;;;4.82;1.80;;;;;;;7.35;100.00;96338.69;5034696;28;20056;-74
2024/02/04 11:28:22;;;;;;;7.70;2.00;;;;;;;7.22;100.00;96349.34;5051672;28;20044;-75
2024/02/04 11:30:50;;;;;;;3.13;1.60;;;;;;;7.45;100.00;96354.81;5051796;28;20154;-74